Terminal Aerodrome Forecast
Issued by NWS Sterling, VA

Current Version | Previous Version | Text Only | Print | Product List | Glossary On
Versions: 1 2 3 4 5 6 7 8 9 10 11 12 13 14
000
FTUS41 KLWX 230500
TAFMRB
TAF
KMRB 230538Z 2306/2406 18005KT P6SM BKN080
     FM231200 16004KT P6SM SCT080
     FM231400 00000KT P6SM SCT090
     FM232000 13006KT P6SM BKN100
     FM240100 14006KT P6SM -RA OVC070
     FM240200 12006KT P6SM -RA OVC050
     FM240400 12006KT 6SM -RA OVC008 WS020/16035KT=

USA.gov is the U.S. government's official web portal to all federal, state and local government web resources and services.